sensor_id;sensor_type;location;lat;lon;timestamp;P1;durP1;ratioP1;P2;durP2;ratioP2
21589;SDS011;10957;50.968;6.828;2022-09-28T00:01:32;8.23;;;7.82;;
21589;SDS011;10957;50.968;6.828;2022-09-28T00:06:33;8.30;;;7.90;;
21589;SDS011;10957;50.968;6.828;2022-09-28T00:11:33;8.27;;;7.88;;
21589;SDS011;10957;50.968;6.828;2022-09-28T00:16:41;7.90;;;7.50;;
21589;SDS011;10957;50.968;6.828;2022-09-28T00:21:43;8.50;;;8.10;;
21589;SDS011;10957;50.968;6.828;2022-09-28T00:26:48;8.38;;;7.97;;
21589;SDS011;10957;50.968;6.828;2022-09-28T00:31:57;8.25;;;7.85;;
21589;SDS011;10957;50.968;6.828;2022-09-28T00:37:01;8.50;;;8.10;;
21589;SDS011;10957;50.968;6.828;2022-09-28T00:42:09;8.50;;;8.10;;
21589;SDS011;10957;50.968;6.828;2022-09-28T00:52:40;8.40;;;8.00;;
21589;SDS011;10957;50.968;6.828;2022-09-28T00:57:43;8.40;;;8.00;;
21589;SDS011;10957;50.968;6.828;2022-09-28T01:02:47;8.60;;;8.15;;
21589;SDS011;10957;50.968;6.828;2022-09-28T01:07:49;8.50;;;8.10;;
21589;SDS011;10957;50.968;6.828;2022-09-28T01:12:50;8.30;;;7.90;;
21589;SDS011;10957;50.968;6.828;2022-09-28T01:23:22;8.70;;;8.30;;
21589;SDS011;10957;50.968;6.828;2022-09-28T01:28:49;8.32;;;7.93;;
21589;SDS011;10957;50.968;6.828;2022-09-28T01:33:54;8.43;;;8.02;;
21589;SDS011;10957;50.968;6.828;2022-09-28T01:39:10;8.50;;;8.10;;
21589;SDS011;10957;50.968;6.828;2022-09-28T01:44:15;8.38;;;7.97;;
21589;SDS011;10957;50.968;6.828;2022-09-28T01:49:19;8.30;;;7.90;;
21589;SDS011;10957;50.968;6.828;2022-09-28T01:54:28;8.40;;;8.00;;
21589;SDS011;10957;50.968;6.828;2022-09-28T01:59:35;8.63;;;8.23;;
21589;SDS011;10957;50.968;6.828;2022-09-28T02:04:42;8.38;;;7.97;;
21589;SDS011;10957;50.968;6.828;2022-09-28T02:09:50;8.20;;;7.80;;
21589;SDS011;10957;50.968;6.828;2022-09-28T02:14:58;8.23;;;7.82;;
21589;SDS011;10957;50.968;6.828;2022-09-28T02:20:10;8.30;;;7.90;;
21589;SDS011;10957;50.968;6.828;2022-09-28T02:25:13;8.45;;;8.05;;
21589;SDS011;10957;50.968;6.828;2022-09-28T02:30:22;8.73;;;8.23;;
21589;SDS011;10957;50.968;6.828;2022-09-28T02:35:22;8.60;;;8.20;;
21589;SDS011;10957;50.968;6.828;2022-09-28T02:40:33;8.20;;;7.80;;
21589;SDS011;10957;50.968;6.828;2022-09-28T02:45:58;8.60;;;8.20;;
21589;SDS011;10957;50.968;6.828;2022-09-28T03:07:21;7.43;;;7.13;;
21589;SDS011;10957;50.968;6.828;2022-09-28T03:12:28;7.75;;;7.35;;
21589;SDS011;10957;50.968;6.828;2022-09-28T03:17:30;7.68;;;7.32;;
21589;SDS011;10957;50.968;6.828;2022-09-28T03:22:31;7.50;;;7.20;;
21589;SDS011;10957;50.968;6.828;2022-09-28T03:27:31;7.40;;;7.10;;
21589;SDS011;10957;50.968;6.828;2022-09-28T03:32:32;7.53;;;7.15;;
21589;SDS011;10957;50.968;6.828;2022-09-28T03:37:33;7.13;;;6.82;;
21589;SDS011;10957;50.968;6.828;2022-09-28T03:42:35;7.72;;;7.22;;
21589;SDS011;10957;50.968;6.828;2022-09-28T03:47:36;7.03;;;6.72;;
21589;SDS011;10957;50.968;6.828;2022-09-28T03:52:37;7.20;;;6.90;;
21589;SDS011;10957;50.968;6.828;2022-09-28T03:57:37;7.18;;;6.88;;
21589;SDS011;10957;50.968;6.828;2022-09-28T04:02:38;10.48;;;9.98;;
21589;SDS011;10957;50.968;6.828;2022-09-28T04:07:39;7.15;;;6.85;;
21589;SDS011;10957;50.968;6.828;2022-09-28T04:12:40;6.72;;;6.43;;
21589;SDS011;10957;50.968;6.828;2022-09-28T04:17:41;6.95;;;6.65;;
21589;SDS011;10957;50.968;6.828;2022-09-28T04:22:52;7.35;;;7.03;;
21589;SDS011;10957;50.968;6.828;2022-09-28T04:27:53;6.80;;;6.50;;
21589;SDS011;10957;50.968;6.828;2022-09-28T04:33:12;6.40;;;6.10;;
21589;SDS011;10957;50.968;6.828;2022-09-28T04:38:13;6.40;;;6.10;;
21589;SDS011;10957;50.968;6.828;2022-09-28T04:43:14;6.80;;;6.50;;
21589;SDS011;10957;50.968;6.828;2022-09-28T04:48:15;6.70;;;6.40;;
21589;SDS011;10957;50.968;6.828;2022-09-28T04:53:38;6.60;;;6.30;;
21589;SDS011;10957;50.968;6.828;2022-09-28T04:58:39;6.72;;;6.43;;
21589;SDS011;10957;50.968;6.828;2022-09-28T05:03:41;6.55;;;6.25;;
21589;SDS011;10957;50.968;6.828;2022-09-28T05:08:50;6.57;;;6.28;;
21589;SDS011;10957;50.968;6.828;2022-09-28T05:13:51;7.07;;;6.78;;
21589;SDS011;10957;50.968;6.828;2022-09-28T05:18:54;7.47;;;7.15;;
21589;SDS011;10957;50.968;6.828;2022-09-28T05:23:55;6.50;;;6.20;;
21589;SDS011;10957;50.968;6.828;2022-09-28T05:28:57;7.15;;;6.85;;
21589;SDS011;10957;50.968;6.828;2022-09-28T05:34:13;6.70;;;6.40;;
21589;SDS011;10957;50.968;6.828;2022-09-28T05:39:14;7.53;;;7.13;;
21589;SDS011;10957;50.968;6.828;2022-09-28T05:44:14;6.95;;;6.65;;
21589;SDS011;10957;50.968;6.828;2022-09-28T05:49:15;7.00;;;6.70;;
21589;SDS011;10957;50.968;6.828;2022-09-28T05:54:16;6.45;;;6.15;;
21589;SDS011;10957;50.968;6.828;2022-09-28T05:59:20;6.93;;;6.63;;
21589;SDS011;10957;50.968;6.828;2022-09-28T06:04:20;7.45;;;6.97;;
21589;SDS011;10957;50.968;6.828;2022-09-28T06:09:22;6.45;;;6.15;;
21589;SDS011;10957;50.968;6.828;2022-09-28T06:14:31;6.25;;;5.95;;
21589;SDS011;10957;50.968;6.828;2022-09-28T06:19:32;6.80;;;6.50;;
21589;SDS011;10957;50.968;6.828;2022-09-28T06:24:41;6.70;;;6.40;;
21589;SDS011;10957;50.968;6.828;2022-09-28T06:29:42;6.78;;;6.47;;
21589;SDS011;10957;50.968;6.828;2022-09-28T06:34:42;6.90;;;6.60;;
21589;SDS011;10957;50.968;6.828;2022-09-28T06:39:43;6.30;;;6.00;;
21589;SDS011;10957;50.968;6.828;2022-09-28T06:44:44;6.32;;;6.03;;
21589;SDS011;10957;50.968;6.828;2022-09-28T06:49:57;6.60;;;6.30;;
21589;SDS011;10957;50.968;6.828;2022-09-28T06:55:01;6.40;;;6.10;;
21589;SDS011;10957;50.968;6.828;2022-09-28T07:00:10;6.80;;;6.50;;
21589;SDS011;10957;50.968;6.828;2022-09-28T07:05:11;6.53;;;6.22;;
21589;SDS011;10957;50.968;6.828;2022-09-28T07:10:39;6.63;;;6.32;;
21589;SDS011;10957;50.968;6.828;2022-09-28T07:16:14;6.90;;;6.60;;
21589;SDS011;10957;50.968;6.828;2022-09-28T07:21:15;5.60;;;5.40;;
21589;SDS011;10957;50.968;6.828;2022-09-28T07:26:16;6.43;;;6.13;;
21589;SDS011;10957;50.968;6.828;2022-09-28T07:31:37;6.70;;;6.40;;
21589;SDS011;10957;50.968;6.828;2022-09-28T07:36:57;6.00;;;5.70;;
21589;SDS011;10957;50.968;6.828;2022-09-28T07:41:58;6.50;;;6.20;;
21589;SDS011;10957;50.968;6.828;2022-09-28T07:46:59;5.90;;;5.60;;
21589;SDS011;10957;50.968;6.828;2022-09-28T07:52:22;6.00;;;5.70;;
21589;SDS011;10957;50.968;6.828;2022-09-28T07:57:39;5.65;;;5.45;;
21589;SDS011;10957;50.968;6.828;2022-09-28T08:02:57;5.97;;;5.68;;
21589;SDS011;10957;50.968;6.828;2022-09-28T08:08:00;5.85;;;5.60;;
21589;SDS011;10957;50.968;6.828;2022-09-28T08:13:02;5.80;;;5.60;;
21589;SDS011;10957;50.968;6.828;2022-09-28T08:18:24;5.70;;;5.47;;
21589;SDS011;10957;50.968;6.828;2022-09-28T08:23:25;5.10;;;4.90;;
21589;SDS011;10957;50.968;6.828;2022-09-28T08:28:26;5.60;;;5.40;;
21589;SDS011;10957;50.968;6.828;2022-09-28T08:33:30;4.78;;;4.57;;
21589;SDS011;10957;50.968;6.828;2022-09-28T08:38:51;5.50;;;5.28;;
21589;SDS011;10957;50.968;6.828;2022-09-28T08:44:17;4.88;;;4.68;;
21589;SDS011;10957;50.968;6.828;2022-09-28T08:49:43;4.40;;;4.20;;
21589;SDS011;10957;50.968;6.828;2022-09-28T09:00:46;4.40;;;4.20;;
21589;SDS011;10957;50.968;6.828;2022-09-28T09:22:21;4.55;;;4.35;;
21589;SDS011;10957;50.968;6.828;2022-09-28T09:27:37;5.15;;;4.88;;
21589;SDS011;10957;50.968;6.828;2022-09-28T09:38:27;4.10;;;3.90;;
21589;SDS011;10957;50.968;6.828;2022-09-28T09:44:19;4.30;;;4.10;;
21589;SDS011;10957;50.968;6.828;2022-09-28T09:55:45;4.72;;;4.53;;
21589;SDS011;10957;50.968;6.828;2022-09-28T10:01:07;4.20;;;4.00;;
21589;SDS011;10957;50.968;6.828;2022-09-28T10:06:33;4.60;;;4.40;;
21589;SDS011;10957;50.968;6.828;2022-09-28T10:11:44;4.60;;;4.40;;
21589;SDS011;10957;50.968;6.828;2022-09-28T10:16:51;4.97;;;4.78;;
21589;SDS011;10957;50.968;6.828;2022-09-28T10:22:14;4.57;;;4.38;;
21589;SDS011;10957;50.968;6.828;2022-09-28T10:27:24;4.40;;;4.20;;
21589;SDS011;10957;50.968;6.828;2022-09-28T10:32:37;4.57;;;4.38;;
21589;SDS011;10957;50.968;6.828;2022-09-28T10:43:25;5.03;;;4.78;;
21589;SDS011;10957;50.968;6.828;2022-09-28T10:49:15;4.10;;;3.90;;
21589;SDS011;10957;50.968;6.828;2022-09-28T11:04:40;4.22;;;4.03;;
21589;SDS011;10957;50.968;6.828;2022-09-28T11:09:44;4.40;;;4.20;;
21589;SDS011;10957;50.968;6.828;2022-09-28T11:14:48;4.55;;;4.35;;
21589;SDS011;10957;50.968;6.828;2022-09-28T11:20:01;4.10;;;3.90;;
21589;SDS011;10957;50.968;6.828;2022-09-28T11:25:26;4.40;;;4.20;;
21589;SDS011;10957;50.968;6.828;2022-09-28T11:41:19;4.57;;;4.38;;
21589;SDS011;10957;50.968;6.828;2022-09-28T11:51:49;4.50;;;4.30;;
21589;SDS011;10957;50.968;6.828;2022-09-28T11:56:52;4.50;;;4.30;;
21589;SDS011;10957;50.968;6.828;2022-09-28T12:01:58;4.05;;;3.88;;
21589;SDS011;10957;50.968;6.828;2022-09-28T12:07:33;4.03;;;3.85;;
21589;SDS011;10957;50.968;6.828;2022-09-28T12:12:46;3.95;;;3.78;;
21589;SDS011;10957;50.968;6.828;2022-09-28T12:17:54;3.67;;;3.58;;
21589;SDS011;10957;50.968;6.828;2022-09-28T12:23:01;3.80;;;3.70;;
21589;SDS011;10957;50.968;6.828;2022-09-28T12:29:00;3.75;;;3.65;;
21589;SDS011;10957;50.968;6.828;2022-09-28T12:33:47;3.90;;;3.80;;
21589;SDS011;10957;50.968;6.828;2022-09-28T12:38:58;4.03;;;3.83;;
21589;SDS011;10957;50.968;6.828;2022-09-28T13:06:24;4.35;;;4.18;;
21589;SDS011;10957;50.968;6.828;2022-09-28T13:11:39;3.70;;;3.60;;
21589;SDS011;10957;50.968;6.828;2022-09-28T13:27:27;3.70;;;3.60;;
21589;SDS011;10957;50.968;6.828;2022-09-28T13:32:31;4.00;;;3.80;;
21589;SDS011;10957;50.968;6.828;2022-09-28T13:37:34;3.60;;;3.50;;
21589;SDS011;10957;50.968;6.828;2022-09-28T13:42:44;4.00;;;3.80;;
21589;SDS011;10957;50.968;6.828;2022-09-28T14:03:24;3.45;;;3.35;;
21589;SDS011;10957;50.968;6.828;2022-09-28T14:19:22;4.00;;;3.80;;
21589;SDS011;10957;50.968;6.828;2022-09-28T14:24:34;3.90;;;3.80;;
21589;SDS011;10957;50.968;6.828;2022-09-28T14:30:05;4.15;;;3.95;;
21589;SDS011;10957;50.968;6.828;2022-09-28T14:35:13;3.90;;;3.80;;
21589;SDS011;10957;50.968;6.828;2022-09-28T14:40:23;4.13;;;3.92;;
21589;SDS011;10957;50.968;6.828;2022-09-28T14:56:24;4.47;;;4.28;;
21589;SDS011;10957;50.968;6.828;2022-09-28T15:01:26;5.07;;;4.88;;
21589;SDS011;10957;50.968;6.828;2022-09-28T15:06:29;5.10;;;4.90;;
21589;SDS011;10957;50.968;6.828;2022-09-28T15:11:44;5.00;;;4.80;;
21589;SDS011;10957;50.968;6.828;2022-09-28T15:16:45;5.10;;;4.90;;
21589;SDS011;10957;50.968;6.828;2022-09-28T15:21:47;5.10;;;4.90;;
21589;SDS011;10957;50.968;6.828;2022-09-28T15:26:50;5.43;;;5.22;;
21589;SDS011;10957;50.968;6.828;2022-09-28T15:31:50;5.50;;;5.30;;
21589;SDS011;10957;50.968;6.828;2022-09-28T15:36:51;5.30;;;5.10;;
21589;SDS011;10957;50.968;6.828;2022-09-28T15:41:55;5.82;;;5.53;;
21589;SDS011;10957;50.968;6.828;2022-09-28T15:47:30;5.82;;;5.60;;
21589;SDS011;10957;50.968;6.828;2022-09-28T15:57:34;5.30;;;5.10;;
21589;SDS011;10957;50.968;6.828;2022-09-28T16:02:36;5.30;;;5.00;;
21589;SDS011;10957;50.968;6.828;2022-09-28T16:07:37;4.90;;;4.70;;
21589;SDS011;10957;50.968;6.828;2022-09-28T16:12:40;5.43;;;5.22;;
21589;SDS011;10957;50.968;6.828;2022-09-28T16:17:42;4.50;;;4.30;;
21589;SDS011;10957;50.968;6.828;2022-09-28T16:22:49;5.30;;;5.10;;
21589;SDS011;10957;50.968;6.828;2022-09-28T16:27:52;5.05;;;4.85;;
21589;SDS011;10957;50.968;6.828;2022-09-28T16:33:01;4.70;;;4.50;;
21589;SDS011;10957;50.968;6.828;2022-09-28T16:38:12;4.50;;;4.30;;
21589;SDS011;10957;50.968;6.828;2022-09-28T16:43:16;5.32;;;5.13;;
21589;SDS011;10957;50.968;6.828;2022-09-28T16:48:26;5.05;;;4.85;;
21589;SDS011;10957;50.968;6.828;2022-09-28T16:53:28;5.30;;;5.10;;
21589;SDS011;10957;50.968;6.828;2022-09-28T16:58:48;5.40;;;5.20;;
21589;SDS011;10957;50.968;6.828;2022-09-28T17:03:49;5.53;;;5.32;;
21589;SDS011;10957;50.968;6.828;2022-09-28T17:08:50;5.30;;;5.10;;
21589;SDS011;10957;50.968;6.828;2022-09-28T17:13:51;6.15;;;5.85;;
21589;SDS011;10957;50.968;6.828;2022-09-28T17:18:58;5.40;;;5.20;;
21589;SDS011;10957;50.968;6.828;2022-09-28T17:24:00;6.10;;;5.80;;
21589;SDS011;10957;50.968;6.828;2022-09-28T17:29:00;5.70;;;5.50;;
21589;SDS011;10957;50.968;6.828;2022-09-28T17:34:01;6.20;;;5.90;;
21589;SDS011;10957;50.968;6.828;2022-09-28T17:39:02;6.25;;;5.95;;
21589;SDS011;10957;50.968;6.828;2022-09-28T17:44:03;7.20;;;6.90;;
21589;SDS011;10957;50.968;6.828;2022-09-28T17:49:06;7.00;;;6.38;;
21589;SDS011;10957;50.968;6.828;2022-09-28T17:54:09;6.40;;;6.10;;
21589;SDS011;10957;50.968;6.828;2022-09-28T17:59:12;7.07;;;6.78;;
21589;SDS011;10957;50.968;6.828;2022-09-28T18:04:15;6.38;;;6.07;;
21589;SDS011;10957;50.968;6.828;2022-09-28T18:09:16;6.10;;;5.80;;
21589;SDS011;10957;50.968;6.828;2022-09-28T18:14:23;6.72;;;6.43;;
21589;SDS011;10957;50.968;6.828;2022-09-28T18:19:24;6.85;;;6.55;;
21589;SDS011;10957;50.968;6.828;2022-09-28T18:24:25;6.80;;;6.50;;
21589;SDS011;10957;50.968;6.828;2022-09-28T18:29:25;7.38;;;7.03;;
21589;SDS011;10957;50.968;6.828;2022-09-28T18:34:26;7.13;;;6.82;;
21589;SDS011;10957;50.968;6.828;2022-09-28T18:39:27;6.60;;;6.30;;
21589;SDS011;10957;50.968;6.828;2022-09-28T18:44:27;6.90;;;6.60;;
21589;SDS011;10957;50.968;6.828;2022-09-28T18:49:29;6.65;;;6.35;;
21589;SDS011;10957;50.968;6.828;2022-09-28T18:54:30;7.50;;;7.10;;
21589;SDS011;10957;50.968;6.828;2022-09-28T18:59:30;7.40;;;7.00;;
21589;SDS011;10957;50.968;6.828;2022-09-28T19:04:31;7.80;;;7.40;;
21589;SDS011;10957;50.968;6.828;2022-09-28T19:09:32;7.70;;;7.30;;
21589;SDS011;10957;50.968;6.828;2022-09-28T19:14:33;7.22;;;6.93;;
21589;SDS011;10957;50.968;6.828;2022-09-28T19:19:33;12.95;;;8.15;;
21589;SDS011;10957;50.968;6.828;2022-09-28T19:24:34;7.07;;;6.78;;
21589;SDS011;10957;50.968;6.828;2022-09-28T19:29:35;7.10;;;6.80;;
21589;SDS011;10957;50.968;6.828;2022-09-28T19:34:36;7.40;;;7.00;;
21589;SDS011;10957;50.968;6.828;2022-09-28T19:39:37;7.22;;;6.85;;
21589;SDS011;10957;50.968;6.828;2022-09-28T19:44:37;7.07;;;6.78;;
21589;SDS011;10957;50.968;6.828;2022-09-28T19:49:39;6.95;;;6.65;;
21589;SDS011;10957;50.968;6.828;2022-09-28T19:54:47;6.95;;;6.65;;
21589;SDS011;10957;50.968;6.828;2022-09-28T19:59:55;6.97;;;6.68;;
21589;SDS011;10957;50.968;6.828;2022-09-28T20:04:56;7.43;;;6.93;;
21589;SDS011;10957;50.968;6.828;2022-09-28T20:09:57;7.72;;;7.32;;
21589;SDS011;10957;50.968;6.828;2022-09-28T20:14:57;7.38;;;7.07;;
21589;SDS011;10957;50.968;6.828;2022-09-28T20:19:58;7.20;;;6.90;;
21589;SDS011;10957;50.968;6.828;2022-09-28T20:24:59;8.77;;;8.27;;
21589;SDS011;10957;50.968;6.828;2022-09-28T20:30:01;7.22;;;6.85;;
21589;SDS011;10957;50.968;6.828;2022-09-28T20:35:04;7.30;;;7.00;;
21589;SDS011;10957;50.968;6.828;2022-09-28T20:40:05;7.75;;;7.25;;
21589;SDS011;10957;50.968;6.828;2022-09-28T20:45:06;7.70;;;7.30;;
21589;SDS011;10957;50.968;6.828;2022-09-28T20:50:07;7.40;;;7.10;;
21589;SDS011;10957;50.968;6.828;2022-09-28T20:55:08;7.78;;;7.38;;
21589;SDS011;10957;50.968;6.828;2022-09-28T21:00:09;7.40;;;7.10;;
21589;SDS011;10957;50.968;6.828;2022-09-28T21:05:10;8.20;;;7.80;;
21589;SDS011;10957;50.968;6.828;2022-09-28T21:10:11;8.30;;;7.90;;
21589;SDS011;10957;50.968;6.828;2022-09-28T21:15:12;8.52;;;8.13;;
21589;SDS011;10957;50.968;6.828;2022-09-28T21:20:13;8.07;;;7.68;;
21589;SDS011;10957;50.968;6.828;2022-09-28T21:25:14;8.20;;;7.80;;
21589;SDS011;10957;50.968;6.828;2022-09-28T21:30:15;7.90;;;7.50;;
21589;SDS011;10957;50.968;6.828;2022-09-28T21:35:17;8.40;;;8.00;;
21589;SDS011;10957;50.968;6.828;2022-09-28T21:40:17;8.10;;;7.70;;
21589;SDS011;10957;50.968;6.828;2022-09-28T21:45:19;8.32;;;7.93;;
21589;SDS011;10957;50.968;6.828;2022-09-28T21:50:21;8.27;;;7.88;;
21589;SDS011;10957;50.968;6.828;2022-09-28T21:55:23;8.70;;;8.30;;
21589;SDS011;10957;50.968;6.828;2022-09-28T22:00:23;9.05;;;8.63;;
21589;SDS011;10957;50.968;6.828;2022-09-28T22:05:24;8.27;;;7.88;;
21589;SDS011;10957;50.968;6.828;2022-09-28T22:10:25;8.30;;;7.90;;
21589;SDS011;10957;50.968;6.828;2022-09-28T22:15:26;8.30;;;7.90;;
21589;SDS011;10957;50.968;6.828;2022-09-28T22:20:27;8.80;;;8.40;;
21589;SDS011;10957;50.968;6.828;2022-09-28T22:25:27;9.07;;;8.60;;
21589;SDS011;10957;50.968;6.828;2022-09-28T22:30:28;8.52;;;8.13;;
21589;SDS011;10957;50.968;6.828;2022-09-28T22:35:29;8.20;;;7.80;;
21589;SDS011;10957;50.968;6.828;2022-09-28T22:40:29;8.18;;;7.78;;
21589;SDS011;10957;50.968;6.828;2022-09-28T22:45:30;8.70;;;8.30;;
21589;SDS011;10957;50.968;6.828;2022-09-28T22:50:31;8.52;;;8.13;;
21589;SDS011;10957;50.968;6.828;2022-09-28T22:55:32;8.43;;;8.02;;
21589;SDS011;10957;50.968;6.828;2022-09-28T23:00:33;11.45;;;10.82;;
21589;SDS011;10957;50.968;6.828;2022-09-28T23:05:33;9.48;;;8.98;;
21589;SDS011;10957;50.968;6.828;2022-09-28T23:10:34;8.70;;;8.30;;
21589;SDS011;10957;50.968;6.828;2022-09-28T23:15:35;8.85;;;8.45;;
21589;SDS011;10957;50.968;6.828;2022-09-28T23:20:36;8.73;;;8.32;;
21589;SDS011;10957;50.968;6.828;2022-09-28T23:25:36;8.35;;;7.95;;
21589;SDS011;10957;50.968;6.828;2022-09-28T23:30:37;8.40;;;8.00;;
21589;SDS011;10957;50.968;6.828;2022-09-28T23:35:37;8.40;;;8.00;;
21589;SDS011;10957;50.968;6.828;2022-09-28T23:40:39;8.52;;;8.13;;
21589;SDS011;10957;50.968;6.828;2022-09-28T23:45:43;8.25;;;7.85;;
21589;SDS011;10957;50.968;6.828;2022-09-28T23:50:44;8.13;;;7.72;;
21589;SDS011;10957;50.968;6.828;2022-09-28T23:55:45;8.20;;;7.80;;
